sensor_id;sensor_type;location;lat;lon;timestamp;P1;durP1;ratioP1;P2;durP2;ratioP2
75112;SDS011;63692;47.338;8.520;2024-01-16T05:11:37;12.07;;;5.03;;
75112;SDS011;63692;47.338;8.520;2024-01-16T05:14:02;14.80;;;5.28;;
75112;SDS011;63692;47.338;8.520;2024-01-16T05:16:28;11.63;;;5.07;;
75112;SDS011;63692;47.338;8.520;2024-01-16T05:18:54;10.07;;;4.88;;
75112;SDS011;63692;47.338;8.520;2024-01-16T06:09:56;13.68;;;5.07;;
75112;SDS011;63692;47.338;8.520;2024-01-16T06:14:49;11.15;;;4.95;;
75112;SDS011;63692;47.338;8.520;2024-01-16T06:17:14;11.52;;;4.85;;
75112;SDS011;63692;47.338;8.520;2024-01-16T06:22:08;12.90;;;5.60;;
75112;SDS011;63692;47.338;8.520;2024-01-16T06:27:08;12.07;;;5.07;;
75112;SDS011;63692;47.338;8.520;2024-01-16T06:32:02;10.85;;;5.78;;
75112;SDS011;63692;47.338;8.520;2024-01-16T06:34:27;12.65;;;5.47;;
75112;SDS011;63692;47.338;8.520;2024-01-16T06:36:53;10.35;;;4.97;;
75112;SDS011;63692;47.338;8.520;2024-01-16T06:39:19;11.20;;;5.35;;
75112;SDS011;63692;47.338;8.520;2024-01-16T06:46:49;14.85;;;5.05;;
75112;SDS011;63692;47.338;8.520;2024-01-16T06:49:14;12.88;;;4.82;;
75112;SDS011;63692;47.338;8.520;2024-01-16T06:51:40;15.30;;;5.78;;
75112;SDS011;63692;47.338;8.520;2024-01-16T06:54:05;11.98;;;5.25;;
75112;SDS011;63692;47.338;8.520;2024-01-16T07:27:13;14.07;;;5.30;;
75112;SDS011;63692;47.338;8.520;2024-01-16T07:29:38;11.73;;;5.65;;
75112;SDS011;63692;47.338;8.520;2024-01-16T07:55:11;15.23;;;6.25;;
75112;SDS011;63692;47.338;8.520;2024-01-16T07:57:36;14.13;;;6.00;;
75112;SDS011;63692;47.338;8.520;2024-01-16T08:00:02;14.02;;;6.72;;
75112;SDS011;63692;47.338;8.520;2024-01-16T08:02:34;11.65;;;5.60;;
75112;SDS011;63692;47.338;8.520;2024-01-16T08:05:01;13.70;;;6.15;;
75112;SDS011;63692;47.338;8.520;2024-01-16T08:07:28;13.82;;;6.15;;
75112;SDS011;63692;47.338;8.520;2024-01-16T08:09:54;13.88;;;6.28;;
75112;SDS011;63692;47.338;8.520;2024-01-16T08:12:20;11.50;;;5.40;;
75112;SDS011;63692;47.338;8.520;2024-01-16T08:17:12;13.75;;;5.78;;
75112;SDS011;63692;47.338;8.520;2024-01-16T08:19:38;12.88;;;6.40;;
75112;SDS011;63692;47.338;8.520;2024-01-16T08:22:04;13.40;;;6.85;;
75112;SDS011;63692;47.338;8.520;2024-01-16T08:24:29;13.38;;;6.45;;
75112;SDS011;63692;47.338;8.520;2024-01-16T08:26:56;12.68;;;5.75;;
75112;SDS011;63692;47.338;8.520;2024-01-16T08:29:22;11.07;;;5.60;;
75112;SDS011;63692;47.338;8.520;2024-01-16T08:31:49;14.27;;;5.95;;
75112;SDS011;63692;47.338;8.520;2024-01-16T08:34:15;12.23;;;5.47;;
75112;SDS011;63692;47.338;8.520;2024-01-16T08:36:41;13.10;;;5.75;;
75112;SDS011;63692;47.338;8.520;2024-01-16T08:39:06;12.38;;;5.88;;
75112;SDS011;63692;47.338;8.520;2024-01-16T08:41:32;11.32;;;5.70;;
75112;SDS011;63692;47.338;8.520;2024-01-16T08:43:57;11.48;;;5.78;;
75112;SDS011;63692;47.338;8.520;2024-01-16T08:46:23;11.40;;;5.78;;
75112;SDS011;63692;47.338;8.520;2024-01-16T08:48:49;12.57;;;5.88;;
75112;SDS011;63692;47.338;8.520;2024-01-16T08:51:14;12.80;;;6.50;;
75112;SDS011;63692;47.338;8.520;2024-01-16T08:53:40;14.65;;;6.68;;
75112;SDS011;63692;47.338;8.520;2024-01-16T08:56:05;13.65;;;6.47;;
75112;SDS011;63692;47.338;8.520;2024-01-16T08:58:32;14.48;;;6.65;;
75112;SDS011;63692;47.338;8.520;2024-01-16T09:01:03;12.23;;;5.47;;
75112;SDS011;63692;47.338;8.520;2024-01-16T09:03:30;14.30;;;6.03;;
75112;SDS011;63692;47.338;8.520;2024-01-16T09:05:59;14.25;;;6.95;;
75112;SDS011;63692;47.338;8.520;2024-01-16T09:08:25;15.27;;;6.38;;
75112;SDS011;63692;47.338;8.520;2024-01-16T09:10:52;13.90;;;6.45;;
75112;SDS011;63692;47.338;8.520;2024-01-16T09:13:18;15.30;;;6.65;;
75112;SDS011;63692;47.338;8.520;2024-01-16T09:15:45;16.60;;;6.70;;
75112;SDS011;63692;47.338;8.520;2024-01-16T09:18:11;12.77;;;6.80;;
75112;SDS011;63692;47.338;8.520;2024-01-16T09:20:37;13.88;;;6.50;;
75112;SDS011;63692;47.338;8.520;2024-01-16T09:23:03;15.20;;;6.57;;
75112;SDS011;63692;47.338;8.520;2024-01-16T09:25:28;16.23;;;6.40;;
75112;SDS011;63692;47.338;8.520;2024-01-16T09:27:54;15.02;;;6.57;;
75112;SDS011;63692;47.338;8.520;2024-01-16T09:30:20;16.77;;;6.60;;
75112;SDS011;63692;47.338;8.520;2024-01-16T09:32:47;16.70;;;7.03;;
75112;SDS011;63692;47.338;8.520;2024-01-16T09:35:13;12.13;;;6.10;;
75112;SDS011;63692;47.338;8.520;2024-01-16T09:37:39;17.45;;;6.40;;
75112;SDS011;63692;47.338;8.520;2024-01-16T09:40:05;13.48;;;6.78;;
75112;SDS011;63692;47.338;8.520;2024-01-16T09:42:31;17.00;;;6.97;;
75112;SDS011;63692;47.338;8.520;2024-01-16T09:44:57;15.35;;;7.10;;
75112;SDS011;63692;47.338;8.520;2024-01-16T09:47:24;16.40;;;7.15;;
75112;SDS011;63692;47.338;8.520;2024-01-16T09:49:50;15.05;;;7.32;;
75112;SDS011;63692;47.338;8.520;2024-01-16T09:52:17;18.58;;;7.05;;
75112;SDS011;63692;47.338;8.520;2024-01-16T09:54:43;17.65;;;7.15;;
75112;SDS011;63692;47.338;8.520;2024-01-16T09:57:08;16.35;;;6.85;;
75112;SDS011;63692;47.338;8.520;2024-01-16T09:59:37;16.55;;;7.22;;
75112;SDS011;63692;47.338;8.520;2024-01-16T10:02:04;18.92;;;7.78;;
75112;SDS011;63692;47.338;8.520;2024-01-16T10:04:32;15.90;;;7.60;;
75112;SDS011;63692;47.338;8.520;2024-01-16T10:06:59;17.45;;;6.85;;
75112;SDS011;63692;47.338;8.520;2024-01-16T10:09:26;16.17;;;7.07;;
75112;SDS011;63692;47.338;8.520;2024-01-16T10:11:51;17.55;;;7.43;;
75112;SDS011;63692;47.338;8.520;2024-01-16T10:14:18;16.95;;;7.60;;
75112;SDS011;63692;47.338;8.520;2024-01-16T10:19:26;18.13;;;7.13;;
75112;SDS011;63692;47.338;8.520;2024-01-16T10:21:52;14.98;;;7.53;;
75112;SDS011;63692;47.338;8.520;2024-01-16T10:24:25;17.38;;;7.45;;
75112;SDS011;63692;47.338;8.520;2024-01-16T10:26:57;14.15;;;6.78;;
75112;SDS011;63692;47.338;8.520;2024-01-16T10:29:25;17.83;;;7.00;;
75112;SDS011;63692;47.338;8.520;2024-01-16T10:31:50;14.73;;;7.13;;
75112;SDS011;63692;47.338;8.520;2024-01-16T10:34:22;15.75;;;7.13;;
75112;SDS011;63692;47.338;8.520;2024-01-16T10:36:49;17.02;;;7.25;;
75112;SDS011;63692;47.338;8.520;2024-01-16T10:39:16;19.00;;;7.80;;
75112;SDS011;63692;47.338;8.520;2024-01-16T10:41:42;16.17;;;7.35;;
75112;SDS011;63692;47.338;8.520;2024-01-16T10:44:22;18.75;;;7.50;;
75112;SDS011;63692;47.338;8.520;2024-01-16T10:46:47;14.85;;;7.03;;
75112;SDS011;63692;47.338;8.520;2024-01-16T10:49:13;15.63;;;7.53;;
75112;SDS011;63692;47.338;8.520;2024-01-16T10:51:39;16.73;;;7.55;;
75112;SDS011;63692;47.338;8.520;2024-01-16T10:54:08;15.60;;;7.03;;
75112;SDS011;63692;47.338;8.520;2024-01-16T10:56:39;13.48;;;7.15;;
75112;SDS011;63692;47.338;8.520;2024-01-16T10:59:25;13.50;;;7.30;;
75112;SDS011;63692;47.338;8.520;2024-01-16T11:01:59;17.73;;;7.30;;
75112;SDS011;63692;47.338;8.520;2024-01-16T11:04:29;18.60;;;7.68;;
75112;SDS011;63692;47.338;8.520;2024-01-16T11:06:56;15.95;;;7.75;;
75112;SDS011;63692;47.338;8.520;2024-01-16T11:09:22;15.30;;;7.15;;
75112;SDS011;63692;47.338;8.520;2024-01-16T11:11:47;15.95;;;7.57;;
75112;SDS011;63692;47.338;8.520;2024-01-16T11:14:18;15.65;;;7.75;;
75112;SDS011;63692;47.338;8.520;2024-01-16T11:16:47;17.95;;;7.93;;
75112;SDS011;63692;47.338;8.520;2024-01-16T11:19:13;18.80;;;8.02;;
75112;SDS011;63692;47.338;8.520;2024-01-16T11:21:41;18.88;;;7.68;;
75112;SDS011;63692;47.338;8.520;2024-01-16T11:24:07;17.88;;;7.38;;
75112;SDS011;63692;47.338;8.520;2024-01-16T11:26:33;19.23;;;7.93;;
75112;SDS011;63692;47.338;8.520;2024-01-16T11:29:49;17.75;;;8.48;;
75112;SDS011;63692;47.338;8.520;2024-01-16T11:31:53;15.98;;;6.75;;
75112;SDS011;63692;47.338;8.520;2024-01-16T11:39:41;12.18;;;6.68;;
75112;SDS011;63692;47.338;8.520;2024-01-16T11:42:07;14.13;;;7.28;;
75112;SDS011;63692;47.338;8.520;2024-01-16T11:44:36;14.10;;;7.35;;
75112;SDS011;63692;47.338;8.520;2024-01-16T11:47:07;13.85;;;7.70;;
75112;SDS011;63692;47.338;8.520;2024-01-16T11:49:34;17.25;;;7.50;;
75112;SDS011;63692;47.338;8.520;2024-01-16T11:52:03;13.43;;;7.22;;
75112;SDS011;63692;47.338;8.520;2024-01-16T11:54:29;14.48;;;7.32;;
75112;SDS011;63692;47.338;8.520;2024-01-16T11:57:04;14.40;;;7.75;;
75112;SDS011;63692;47.338;8.520;2024-01-16T12:02:18;16.75;;;7.93;;
75112;SDS011;63692;47.338;8.520;2024-01-16T12:04:55;14.55;;;7.72;;
75112;SDS011;63692;47.338;8.520;2024-01-16T12:07:22;16.52;;;7.72;;
75112;SDS011;63692;47.338;8.520;2024-01-16T12:09:48;17.08;;;7.32;;
75112;SDS011;63692;47.338;8.520;2024-01-16T12:12:14;16.58;;;8.00;;
75112;SDS011;63692;47.338;8.520;2024-01-16T12:14:40;15.90;;;7.88;;
75112;SDS011;63692;47.338;8.520;2024-01-16T12:17:15;15.30;;;7.80;;
75112;SDS011;63692;47.338;8.520;2024-01-16T12:19:43;13.50;;;7.30;;
75112;SDS011;63692;47.338;8.520;2024-01-16T12:22:09;17.80;;;8.00;;
75112;SDS011;63692;47.338;8.520;2024-01-16T12:24:35;13.95;;;6.90;;
75112;SDS011;63692;47.338;8.520;2024-01-16T12:27:02;15.05;;;7.32;;
75112;SDS011;63692;47.338;8.520;2024-01-16T12:29:29;16.20;;;7.50;;
75112;SDS011;63692;47.338;8.520;2024-01-16T12:32:04;14.30;;;7.75;;
75112;SDS011;63692;47.338;8.520;2024-01-16T12:34:31;15.13;;;6.65;;
75112;SDS011;63692;47.338;8.520;2024-01-16T12:37:06;15.60;;;7.68;;
75112;SDS011;63692;47.338;8.520;2024-01-16T12:39:32;16.35;;;7.72;;
75112;SDS011;63692;47.338;8.520;2024-01-16T12:44:28;17.95;;;7.53;;
75112;SDS011;63692;47.338;8.520;2024-01-16T12:46:54;14.70;;;7.55;;
75112;SDS011;63692;47.338;8.520;2024-01-16T12:49:21;12.80;;;7.25;;
75112;SDS011;63692;47.338;8.520;2024-01-16T12:51:48;18.63;;;7.95;;
75112;SDS011;63692;47.338;8.520;2024-01-16T12:54:15;15.18;;;7.60;;
75112;SDS011;63692;47.338;8.520;2024-01-16T12:56:43;20.83;;;7.82;;
75112;SDS011;63692;47.338;8.520;2024-01-16T12:59:12;14.68;;;7.53;;
75112;SDS011;63692;47.338;8.520;2024-01-16T13:01:45;16.33;;;7.10;;
75112;SDS011;63692;47.338;8.520;2024-01-16T13:04:11;13.13;;;7.05;;
75112;SDS011;63692;47.338;8.520;2024-01-16T13:06:38;13.25;;;7.00;;
75112;SDS011;63692;47.338;8.520;2024-01-16T13:09:06;14.52;;;6.55;;
75112;SDS011;63692;47.338;8.520;2024-01-16T13:14:11;13.02;;;6.80;;
75112;SDS011;63692;47.338;8.520;2024-01-16T13:16:37;11.13;;;5.75;;
75112;SDS011;63692;47.338;8.520;2024-01-16T13:19:03;12.55;;;5.32;;
75112;SDS011;63692;47.338;8.520;2024-01-16T13:21:30;8.25;;;4.32;;
75112;SDS011;63692;47.338;8.520;2024-01-16T13:23:55;8.63;;;4.75;;
75112;SDS011;63692;47.338;8.520;2024-01-16T13:26:21;7.75;;;4.70;;
75112;SDS011;63692;47.338;8.520;2024-01-16T13:28:47;13.13;;;4.93;;
75112;SDS011;63692;47.338;8.520;2024-01-16T13:31:13;9.27;;;5.22;;
75112;SDS011;63692;47.338;8.520;2024-01-16T13:33:38;8.55;;;4.40;;
75112;SDS011;63692;47.338;8.520;2024-01-16T13:36:04;9.88;;;4.63;;
75112;SDS011;63692;47.338;8.520;2024-01-16T13:38:29;10.52;;;4.65;;
75112;SDS011;63692;47.338;8.520;2024-01-16T13:40:55;9.93;;;5.07;;
75112;SDS011;63692;47.338;8.520;2024-01-16T13:43:21;10.95;;;4.88;;
75112;SDS011;63692;47.338;8.520;2024-01-16T13:45:46;9.57;;;5.15;;
75112;SDS011;63692;47.338;8.520;2024-01-16T13:48:15;9.00;;;4.75;;
75112;SDS011;63692;47.338;8.520;2024-01-16T13:50:41;10.40;;;4.85;;
75112;SDS011;63692;47.338;8.520;2024-01-16T13:53:07;9.75;;;4.88;;
75112;SDS011;63692;47.338;8.520;2024-01-16T13:55:33;9.05;;;5.10;;
75112;SDS011;63692;47.338;8.520;2024-01-16T13:57:58;7.95;;;4.65;;
75112;SDS011;63692;47.338;8.520;2024-01-16T14:00:24;9.82;;;4.93;;
75112;SDS011;63692;47.338;8.520;2024-01-16T14:02:50;8.55;;;4.85;;
75112;SDS011;63692;47.338;8.520;2024-01-16T14:05:17;9.10;;;4.65;;
75112;SDS011;63692;47.338;8.520;2024-01-16T14:07:43;8.32;;;4.93;;
75112;SDS011;63692;47.338;8.520;2024-01-16T14:10:11;7.80;;;4.22;;
75112;SDS011;63692;47.338;8.520;2024-01-16T14:12:38;8.65;;;4.60;;
75112;SDS011;63692;47.338;8.520;2024-01-16T14:15:04;11.48;;;5.70;;
75112;SDS011;63692;47.338;8.520;2024-01-16T14:17:34;7.60;;;4.55;;
75112;SDS011;63692;47.338;8.520;2024-01-16T14:20:00;7.75;;;4.43;;
75112;SDS011;63692;47.338;8.520;2024-01-16T14:22:26;7.90;;;4.30;;
75112;SDS011;63692;47.338;8.520;2024-01-16T14:24:52;8.30;;;4.50;;
75112;SDS011;63692;47.338;8.520;2024-01-16T14:27:18;9.57;;;4.70;;
75112;SDS011;63692;47.338;8.520;2024-01-16T14:29:44;8.15;;;4.60;;
75112;SDS011;63692;47.338;8.520;2024-01-16T14:32:09;9.45;;;4.70;;
75112;SDS011;63692;47.338;8.520;2024-01-16T14:34:35;7.53;;;4.40;;
75112;SDS011;63692;47.338;8.520;2024-01-16T14:37:00;7.18;;;4.35;;
75112;SDS011;63692;47.338;8.520;2024-01-16T14:39:26;9.05;;;4.68;;
75112;SDS011;63692;47.338;8.520;2024-01-16T14:41:55;8.90;;;4.47;;
75112;SDS011;63692;47.338;8.520;2024-01-16T14:44:21;9.57;;;4.57;;
75112;SDS011;63692;47.338;8.520;2024-01-16T14:46:47;8.80;;;4.90;;
75112;SDS011;63692;47.338;8.520;2024-01-16T14:49:12;8.40;;;5.05;;
75112;SDS011;63692;47.338;8.520;2024-01-16T14:51:38;8.55;;;4.80;;
75112;SDS011;63692;47.338;8.520;2024-01-16T14:54:03;7.88;;;4.38;;
75112;SDS011;63692;47.338;8.520;2024-01-16T14:56:30;7.63;;;4.30;;
75112;SDS011;63692;47.338;8.520;2024-01-16T14:58:57;9.10;;;5.05;;
75112;SDS011;63692;47.338;8.520;2024-01-16T15:01:23;12.73;;;4.60;;
75112;SDS011;63692;47.338;8.520;2024-01-16T15:03:48;11.32;;;4.65;;
75112;SDS011;63692;47.338;8.520;2024-01-16T15:06:14;15.40;;;5.40;;
75112;SDS011;63692;47.338;8.520;2024-01-16T15:08:42;11.57;;;5.45;;
75112;SDS011;63692;47.338;8.520;2024-01-16T15:11:08;12.93;;;5.07;;
75112;SDS011;63692;47.338;8.520;2024-01-16T15:13:33;12.32;;;5.15;;
75112;SDS011;63692;47.338;8.520;2024-01-16T15:15:59;8.13;;;4.85;;
75112;SDS011;63692;47.338;8.520;2024-01-16T15:18:25;8.57;;;4.70;;
75112;SDS011;63692;47.338;8.520;2024-01-16T15:20:51;8.98;;;4.50;;
75112;SDS011;63692;47.338;8.520;2024-01-16T15:23:16;14.65;;;5.20;;
75112;SDS011;63692;47.338;8.520;2024-01-16T15:25:42;11.70;;;4.90;;
75112;SDS011;63692;47.338;8.520;2024-01-16T15:28:08;14.23;;;4.75;;
75112;SDS011;63692;47.338;8.520;2024-01-16T15:30:33;8.48;;;4.80;;
75112;SDS011;63692;47.338;8.520;2024-01-16T15:33:01;10.27;;;4.82;;
75112;SDS011;63692;47.338;8.520;2024-01-16T15:35:29;8.82;;;4.47;;
75112;SDS011;63692;47.338;8.520;2024-01-16T15:37:58;8.23;;;4.70;;
75112;SDS011;63692;47.338;8.520;2024-01-16T15:40:23;9.80;;;5.22;;
75112;SDS011;63692;47.338;8.520;2024-01-16T15:42:49;12.60;;;5.40;;
75112;SDS011;63692;47.338;8.520;2024-01-16T15:45:15;10.35;;;5.25;;
75112;SDS011;63692;47.338;8.520;2024-01-16T15:47:41;8.98;;;5.10;;
75112;SDS011;63692;47.338;8.520;2024-01-16T15:50:07;9.00;;;4.93;;
75112;SDS011;63692;47.338;8.520;2024-01-16T15:52:33;13.18;;;5.43;;
75112;SDS011;63692;47.338;8.520;2024-01-16T15:54:59;13.88;;;5.55;;
75112;SDS011;63692;47.338;8.520;2024-01-16T15:57:26;12.23;;;5.30;;
75112;SDS011;63692;47.338;8.520;2024-01-16T15:59:52;10.05;;;5.03;;
75112;SDS011;63692;47.338;8.520;2024-01-16T16:02:17;11.88;;;5.78;;
75112;SDS011;63692;47.338;8.520;2024-01-16T16:04:43;11.93;;;5.30;;
75112;SDS011;63692;47.338;8.520;2024-01-16T16:07:09;9.82;;;5.03;;
75112;SDS011;63692;47.338;8.520;2024-01-16T16:09:35;10.10;;;5.13;;
75112;SDS011;63692;47.338;8.520;2024-01-16T16:12:01;10.77;;;5.78;;
75112;SDS011;63692;47.338;8.520;2024-01-16T16:14:28;9.70;;;5.55;;
75112;SDS011;63692;47.338;8.520;2024-01-16T16:16:57;9.25;;;4.90;;
75112;SDS011;63692;47.338;8.520;2024-01-16T16:19:36;9.45;;;5.30;;
75112;SDS011;63692;47.338;8.520;2024-01-16T16:22:05;12.43;;;6.45;;
75112;SDS011;63692;47.338;8.520;2024-01-16T16:24:31;10.25;;;5.60;;
75112;SDS011;63692;47.338;8.520;2024-01-16T16:26:58;10.52;;;5.20;;
75112;SDS011;63692;47.338;8.520;2024-01-16T16:29:24;11.98;;;5.85;;
75112;SDS011;63692;47.338;8.520;2024-01-16T16:34:19;10.40;;;5.00;;
75112;SDS011;63692;47.338;8.520;2024-01-16T16:36:45;8.90;;;4.97;;
75112;SDS011;63692;47.338;8.520;2024-01-16T16:39:11;23.20;;;9.63;;
75112;SDS011;63692;47.338;8.520;2024-01-16T16:41:41;13.82;;;6.15;;
75112;SDS011;63692;47.338;8.520;2024-01-16T16:44:07;12.55;;;6.07;;
75112;SDS011;63692;47.338;8.520;2024-01-16T16:46:33;8.90;;;5.40;;
75112;SDS011;63692;47.338;8.520;2024-01-16T16:51:26;10.40;;;5.28;;
75112;SDS011;63692;47.338;8.520;2024-01-16T16:53:52;11.50;;;5.70;;
75112;SDS011;63692;47.338;8.520;2024-01-16T16:56:19;14.82;;;6.38;;
75112;SDS011;63692;47.338;8.520;2024-01-16T16:58:46;11.32;;;5.63;;
75112;SDS011;63692;47.338;8.520;2024-01-16T17:01:15;10.98;;;6.00;;
75112;SDS011;63692;47.338;8.520;2024-01-16T17:03:41;10.98;;;5.85;;
75112;SDS011;63692;47.338;8.520;2024-01-16T17:06:08;9.18;;;5.15;;
75112;SDS011;63692;47.338;8.520;2024-01-16T17:08:34;10.63;;;5.75;;
75112;SDS011;63692;47.338;8.520;2024-01-16T17:11:01;11.02;;;5.82;;
75112;SDS011;63692;47.338;8.520;2024-01-16T17:13:28;14.30;;;6.78;;
75112;SDS011;63692;47.338;8.520;2024-01-16T17:15:58;13.05;;;6.22;;
75112;SDS011;63692;47.338;8.520;2024-01-16T17:18:28;11.75;;;5.63;;
75112;SDS011;63692;47.338;8.520;2024-01-16T17:20:55;9.80;;;5.65;;
75112;SDS011;63692;47.338;8.520;2024-01-16T17:23:21;9.75;;;5.60;;
75112;SDS011;63692;47.338;8.520;2024-01-16T17:25:47;9.82;;;5.60;;
75112;SDS011;63692;47.338;8.520;2024-01-16T17:28:14;12.30;;;5.82;;
75112;SDS011;63692;47.338;8.520;2024-01-16T17:30:39;12.20;;;5.88;;
75112;SDS011;63692;47.338;8.520;2024-01-16T17:33:06;12.15;;;6.10;;
75112;SDS011;63692;47.338;8.520;2024-01-16T17:35:32;11.55;;;5.57;;
75112;SDS011;63692;47.338;8.520;2024-01-16T17:37:58;13.27;;;6.05;;
75112;SDS011;63692;47.338;8.520;2024-01-16T17:40:23;10.52;;;5.75;;
75112;SDS011;63692;47.338;8.520;2024-01-16T17:42:49;13.93;;;6.10;;
75112;SDS011;63692;47.338;8.520;2024-01-16T17:45:14;11.43;;;6.32;;
75112;SDS011;63692;47.338;8.520;2024-01-16T17:47:40;9.35;;;5.78;;
75112;SDS011;63692;47.338;8.520;2024-01-16T17:50:06;14.18;;;6.32;;
75112;SDS011;63692;47.338;8.520;2024-01-16T17:52:37;13.88;;;6.38;;
75112;SDS011;63692;47.338;8.520;2024-01-16T17:55:06;12.10;;;6.05;;
75112;SDS011;63692;47.338;8.520;2024-01-16T17:57:33;11.90;;;6.35;;
75112;SDS011;63692;47.338;8.520;2024-01-16T18:00:00;11.07;;;6.28;;
75112;SDS011;63692;47.338;8.520;2024-01-16T18:02:26;10.68;;;5.82;;
75112;SDS011;63692;47.338;8.520;2024-01-16T18:04:52;11.60;;;6.07;;
75112;SDS011;63692;47.338;8.520;2024-01-16T18:09:47;9.75;;;5.68;;
75112;SDS011;63692;47.338;8.520;2024-01-16T18:12:12;13.10;;;6.13;;
75112;SDS011;63692;47.338;8.520;2024-01-16T18:14:38;13.20;;;6.07;;
75112;SDS011;63692;47.338;8.520;2024-01-16T18:17:04;11.60;;;6.03;;
75112;SDS011;63692;47.338;8.520;2024-01-16T18:19:30;11.52;;;6.38;;
75112;SDS011;63692;47.338;8.520;2024-01-16T18:22:02;11.52;;;6.22;;
75112;SDS011;63692;47.338;8.520;2024-01-16T18:24:30;12.70;;;6.65;;
75112;SDS011;63692;47.338;8.520;2024-01-16T18:26:57;11.68;;;6.78;;
75112;SDS011;63692;47.338;8.520;2024-01-16T18:29:22;12.73;;;6.53;;
75112;SDS011;63692;47.338;8.520;2024-01-16T18:31:48;13.02;;;6.97;;
75112;SDS011;63692;47.338;8.520;2024-01-16T18:34:15;15.65;;;7.18;;
